Time;durP1;ratioP1;P1;durP2;ratioP2;P2;SDS_P1;SDS_P2;PMS_P1;PMS_P2;Temp;Humidity;BMP_temperature;BMP_pressure;BME280_temperature;BME280_humidity;BME280_pressure;Samples;Min_cycle;Max_cycle;Signal;HPM_P1;HPM_P2
2022/06/23 00:03:40;;;;;;;4.47;1.70;;;14.60;99.90;;;;;;6246809;22;20024;-96
2022/06/23 00:11:23;;;;;;;4.05;1.63;;;14.30;99.90;;;;;;6212734;22;20032;-95
2022/06/23 00:13:50;;;;;;;3.35;1.50;;;14.30;99.90;;;;;;6190951;23;20109;-96
2022/06/23 00:16:24;;;;;;;;;;;14.30;99.90;;;;;;6190589;23;20430;-93
2022/06/23 00:22:08;;;;;;;3.70;1.67;;;14.20;99.90;;;;;;6216286;22;20845;-95
2022/06/23 00:29:56;;;;;;;3.88;1.65;;;14.20;99.90;;;;;;6186295;22;20020;-96
2022/06/23 00:32:22;;;;;;;3.75;1.80;;;14.20;99.90;;;;;;6160341;23;20442;-92
2022/06/23 00:38:36;;;;;;;4.32;2.00;;;14.20;99.90;;;;;;6212017;22;20070;-93
2022/06/23 00:41:02;;;;;;;4.65;1.75;;;14.20;99.90;;;;;;6189804;23;20020;-94
2022/06/23 00:43:30;;;;;;;3.42;1.70;;;14.20;99.90;;;;;;6189971;23;20020;-94
2022/06/23 00:46:06;;;;;;;4.03;1.90;;;14.10;99.90;;;;;;6190159;23;20020;-95
2022/06/23 00:54:06;;;;;;;3.33;1.45;;;14.00;99.90;;;;;;6186012;22;20021;-93
2022/06/23 00:57:05;;;;;;;5.25;2.03;;;14.00;99.90;;;;;;6160135;23;20094;-93
2022/06/23 00:59:35;;;;;;;4.30;2.00;;;14.00;99.90;;;;;;6160004;23;20021;-93
2022/06/23 03:38:15;;;;;;;5.15;2.13;;;13.00;99.90;;;;;;6276796;22;20055;-90
2022/06/23 03:44:16;;;;;;;5.72;2.15;;;13.00;99.90;;;;;;6250949;22;20026;-90
2022/06/23 03:47:01;;;;;;;5.78;2.28;;;12.90;99.90;;;;;;6225951;22;20020;-90
2022/06/23 03:49:41;;;;;;;4.88;2.28;;;12.90;99.90;;;;;;6225516;22;20020;-90
2022/06/23 03:52:47;;;;;;;4.97;2.03;;;12.90;99.90;;;;;;6225619;22;20016;-90
2022/06/23 03:55:30;;;;;;;4.53;2.03;;;12.90;99.90;;;;;;6250338;22;20445;-90
2022/06/23 03:58:03;;;;;;;5.00;2.00;;;12.90;99.90;;;;;;6225056;22;20016;-89
2022/06/23 04:00:46;;;;;;;6.13;2.65;;;13.00;99.90;;;;;;6225619;22;20038;-92
2022/06/23 04:03:47;;;;;;;5.07;2.13;;;13.00;99.90;;;;;;6225273;22;20043;-90
2022/06/23 04:06:31;;;;;;;6.22;2.67;;;13.10;99.90;;;;;;6225003;22;20015;-91
2022/06/23 04:09:13;;;;;;;5.30;2.13;;;13.10;99.90;;;;;;6225565;22;20016;-89
2022/06/23 04:49:29;;;;;;;6.97;3.78;;;13.90;99.90;;;;;;6275990;22;20024;-86
2022/06/23 04:52:22;;;;;;;6.88;2.90;;;14.00;99.90;;;;;;6249674;22;20024;-87
2022/06/23 04:54:55;;;;;;;7.32;3.47;;;14.10;99.90;;;;;;6224065;22;20011;-87
2022/06/23 04:57:27;;;;;;;8.43;3.78;;;14.20;99.90;;;;;;6224566;22;20051;-87
2022/06/23 04:59:57;;;;;;;9.85;3.40;;;14.20;99.90;;;;;;6248845;22;20055;-88
2022/06/23 05:02:26;;;;;;;7.57;3.30;;;14.30;99.90;;;;;;6222922;22;20016;-89
2022/06/23 05:05:01;;;;;;;6.88;3.20;;;14.30;99.90;;;;;;6222313;22;20023;-89
2022/06/23 05:07:27;;;;;;;6.88;3.20;;;14.50;99.90;;;;;;6223798;22;20508;-90
2022/06/23 05:09:59;;;;;;;7.07;3.43;;;14.50;99.90;;;;;;6225086;22;20073;-90
2022/06/23 05:12:34;;;;;;;7.65;3.47;;;14.60;99.90;;;;;;6253297;22;20033;-90
2022/06/23 05:15:10;;;;;;;7.90;3.63;;;15.00;99.90;;;;;;6232069;22;20015;-91
2022/06/23 05:17:46;;;;;;;7.83;3.37;;;15.40;99.90;;;;;;6225699;22;20013;-91
2022/06/23 05:20:19;;;;;;;7.25;3.45;;;15.90;99.90;;;;;;6224490;22;20020;-91
2022/06/23 05:22:47;;;;;;;6.60;3.40;;;16.60;99.90;;;;;;6225192;22;20016;-92
2022/06/23 05:25:15;;;;;;;7.30;3.78;;;16.80;99.90;;;;;;6224886;22;20055;-91
2022/06/23 05:28:21;;;;;;;6.63;3.45;;;16.70;99.90;;;;;;6249243;22;20020;-92
2022/06/23 15:07:31;;;;;;;3.10;1.50;;;29.40;70.20;;;;;;6289384;22;20027;-96
2022/06/23 16:46:26;;;;;;;2.22;1.27;;;28.40;70.90;;;;;;6280622;22;20020;-92
2022/06/23 16:48:59;;;;;;;1.67;1.10;;;28.30;71.30;;;;;;6261204;22;20075;-88
2022/06/23 16:51:50;;;;;;;1.63;1.10;;;28.30;71.20;;;;;;6233184;22;20051;-96
2022/06/23 16:54:30;;;;;;;2.13;1.15;;;28.30;71.00;;;;;;6229345;22;20057;-95
2022/06/23 16:57:07;;;;;;;2.08;1.10;;;28.30;71.00;;;;;;6258265;22;20027;-95
2022/06/23 17:00:14;;;;;;;1.95;1.13;;;28.30;71.00;;;;;;6233152;22;20051;-89
2022/06/23 17:03:03;;;;;;;1.83;1.20;;;28.20;71.60;;;;;;6259875;22;20058;-91
2022/06/23 17:11:32;;;;;;;2.60;1.47;;;28.10;72.00;;;;;;6240988;22;20282;-90
2022/06/23 17:14:40;;;;;;;2.28;1.27;;;28.10;71.80;;;;;;6225563;23;20278;-93
2022/06/23 17:19:50;;;;;;;2.40;1.20;;;28.00;71.90;;;;;;6196177;23;20458;-90
